createdAt,value
2022-08-25T00:02:13.219Z,6.85
2022-08-25T00:04:40.590Z,6.35
2022-08-25T00:07:10.527Z,7.32
2022-08-25T00:09:37.074Z,6.88
2022-08-25T00:12:05.337Z,7.60
2022-08-25T00:14:36.914Z,7.18
2022-08-25T00:17:04.344Z,7.00
2022-08-25T00:19:34.586Z,6.18
2022-08-25T00:22:02.449Z,6.80
2022-08-25T00:24:29.818Z,6.53
2022-08-25T00:26:58.012Z,7.70
2022-08-25T00:29:28.410Z,7.03
2022-08-25T00:31:55.626Z,6.30
2022-08-25T00:34:29.390Z,7.25
2022-08-25T00:36:56.433Z,6.93
2022-08-25T00:39:24.021Z,6.95
2022-08-25T00:41:52.260Z,6.95
2022-08-25T00:44:19.533Z,7.20
2022-08-25T00:46:52.001Z,7.07
2022-08-25T00:49:29.533Z,7.30
2022-08-25T00:52:04.090Z,7.25
2022-08-25T00:54:35.164Z,9.07
2022-08-25T00:57:03.558Z,6.60
2022-08-25T00:59:31.820Z,7.70
2022-08-25T01:01:59.240Z,6.80
2022-08-25T01:04:26.830Z,7.75
2022-08-25T01:06:53.645Z,7.07
2022-08-25T01:09:20.259Z,8.20
2022-08-25T01:11:47.741Z,7.10
2022-08-25T01:14:17.899Z,7.00
2022-08-25T01:16:45.157Z,7.53
2022-08-25T01:19:15.379Z,6.70
2022-08-25T01:21:48.453Z,7.60
2022-08-25T01:24:37.097Z,7.45
2022-08-25T01:27:04.146Z,7.22
2022-08-25T01:29:31.225Z,8.13
2022-08-25T01:32:00.734Z,6.75
2022-08-25T01:34:30.210Z,7.20
2022-08-25T01:36:57.962Z,7.38
2022-08-25T01:39:25.848Z,7.65
2022-08-25T01:42:09.233Z,7.68
2022-08-25T01:44:38.391Z,7.57
2022-08-25T01:47:06.481Z,7.63
2022-08-25T01:49:33.326Z,7.38
2022-08-25T01:52:28.997Z,7.32
2022-08-25T01:54:55.525Z,8.02
2022-08-25T01:57:22.497Z,8.10
2022-08-25T01:59:49.161Z,8.07
2022-08-25T02:02:15.742Z,7.95
2022-08-25T02:04:44.928Z,8.27
2022-08-25T02:07:11.700Z,8.45
2022-08-25T02:09:39.147Z,7.85
2022-08-25T02:12:06.027Z,8.05
2022-08-25T02:14:32.669Z,8.35
2022-08-25T02:16:59.385Z,7.97
2022-08-25T02:19:26.346Z,8.63
2022-08-25T02:21:53.893Z,9.05
2022-08-25T02:24:20.934Z,9.05
2022-08-25T02:26:47.657Z,9.07
2022-08-25T02:29:15.527Z,8.27
2022-08-25T02:31:42.079Z,9.75
2022-08-25T02:34:09.837Z,9.57
2022-08-25T02:36:37.826Z,8.75
2022-08-25T02:39:06.478Z,10.15
2022-08-25T02:41:33.701Z,8.80
2022-08-25T02:44:01.423Z,9.88
2022-08-25T02:46:28.213Z,9.35
2022-08-25T02:48:55.325Z,9.38
2022-08-25T02:51:24.597Z,9.48
2022-08-25T02:53:51.355Z,10.02
2022-08-25T02:56:19.000Z,10.68
2022-08-25T02:58:46.311Z,10.93
2022-08-25T03:01:13.777Z,11.20
2022-08-25T03:03:42.117Z,10.75
2022-08-25T03:06:12.360Z,11.07
2022-08-25T03:08:39.381Z,11.27
2022-08-25T03:11:06.606Z,11.35
2022-08-25T03:13:33.230Z,10.98
2022-08-25T03:16:01.035Z,10.40
2022-08-25T03:18:30.312Z,10.98
2022-08-25T03:21:00.742Z,10.95
2022-08-25T03:23:27.283Z,10.23
2022-08-25T03:26:13.982Z,9.73
2022-08-25T03:28:41.752Z,10.52
2022-08-25T03:31:08.934Z,10.15
2022-08-25T03:33:36.187Z,10.60
2022-08-25T03:36:03.205Z,10.20
2022-08-25T03:38:29.917Z,10.10
2022-08-25T03:40:56.818Z,10.45
2022-08-25T03:43:26.201Z,10.18
2022-08-25T03:45:52.897Z,10.85
2022-08-25T03:48:19.702Z,11.63
2022-08-25T03:50:50.544Z,11.70
2022-08-25T03:53:19.828Z,11.18
2022-08-25T03:55:46.645Z,10.75
2022-08-25T03:58:14.546Z,11.20
2022-08-25T04:00:41.219Z,9.63
2022-08-25T04:03:07.977Z,11.68
2022-08-25T04:05:35.363Z,12.15
2022-08-25T04:08:02.193Z,11.15
2022-08-25T04:10:29.606Z,11.43
2022-08-25T04:12:57.113Z,11.95
2022-08-25T04:15:27.115Z,13.30
2022-08-25T04:17:58.131Z,12.10
2022-08-25T04:20:24.684Z,14.75
2022-08-25T04:22:51.224Z,14.60
2022-08-25T04:25:17.860Z,18.30
2022-08-25T04:27:44.394Z,17.27
2022-08-25T04:30:11.551Z,17.50
2022-08-25T04:32:38.060Z,18.48
2022-08-25T04:35:05.440Z,17.98
2022-08-25T04:37:33.461Z,19.80
2022-08-25T04:40:00.258Z,18.13
2022-08-25T04:42:27.422Z,17.48
2022-08-25T04:44:54.610Z,19.85
2022-08-25T04:47:21.549Z,17.52
2022-08-25T04:49:48.108Z,20.10
2022-08-25T04:52:14.913Z,19.10
2022-08-25T04:54:42.227Z,19.45
2022-08-25T04:57:08.838Z,20.38
2022-08-25T04:59:35.456Z,19.92
2022-08-25T05:02:03.223Z,20.65
2022-08-25T05:04:30.723Z,20.50
2022-08-25T05:06:57.603Z,20.05
2022-08-25T05:09:25.422Z,19.73
2022-08-25T05:11:52.611Z,18.73
2022-08-25T05:14:26.156Z,18.45
2022-08-25T05:16:54.376Z,19.33
2022-08-25T05:19:21.028Z,19.58
2022-08-25T05:21:48.015Z,19.40
2022-08-25T05:24:14.599Z,19.15
2022-08-25T05:26:41.633Z,19.30
2022-08-25T05:29:08.267Z,19.00
2022-08-25T05:31:39.652Z,18.10
2022-08-25T05:34:08.840Z,18.00
2022-08-25T05:36:35.550Z,19.95
2022-08-25T05:39:02.592Z,19.02
2022-08-25T05:41:30.375Z,19.73
2022-08-25T05:43:57.308Z,17.77
2022-08-25T05:46:24.054Z,17.98
2022-08-25T05:48:53.863Z,17.83
2022-08-25T05:51:20.506Z,19.13
2022-08-25T05:53:49.758Z,18.02
2022-08-25T05:56:16.752Z,18.45
2022-08-25T05:58:43.755Z,19.25
2022-08-25T06:01:36.910Z,17.77
2022-08-25T06:04:03.946Z,17.60
2022-08-25T06:06:30.750Z,17.95
2022-08-25T06:08:57.263Z,18.52
2022-08-25T06:11:23.897Z,19.30
2022-08-25T06:13:50.641Z,18.35
2022-08-25T06:16:17.325Z,17.95
2022-08-25T06:18:43.909Z,17.33
2022-08-25T06:21:14.615Z,17.70
2022-08-25T06:23:41.669Z,16.98
2022-08-25T06:26:13.170Z,16.35
2022-08-25T06:28:47.734Z,18.25
2022-08-25T06:31:14.426Z,17.05
2022-08-25T06:33:41.198Z,17.98
2022-08-25T06:36:08.840Z,18.00
2022-08-25T06:38:35.582Z,17.63
2022-08-25T06:41:04.539Z,19.02
2022-08-25T06:43:32.814Z,20.20
2022-08-25T06:46:11.341Z,17.98
2022-08-25T06:48:38.307Z,17.60
2022-08-25T06:51:16.004Z,19.83
2022-08-25T06:53:43.648Z,17.40
2022-08-25T06:56:11.100Z,17.17
2022-08-25T06:58:38.345Z,18.05
2022-08-25T07:01:23.515Z,17.83
2022-08-25T07:03:55.157Z,17.88
2022-08-25T07:06:22.231Z,18.45
2022-08-25T07:08:48.784Z,17.92
2022-08-25T07:11:17.425Z,16.88
2022-08-25T07:13:45.232Z,16.35
2022-08-25T07:16:12.195Z,16.23
2022-08-25T07:18:38.930Z,15.38
2022-08-25T07:21:09.068Z,15.80
2022-08-25T07:23:36.661Z,16.15
2022-08-25T07:26:35.999Z,15.95
2022-08-25T07:29:01.594Z,17.10
2022-08-25T07:31:30.219Z,16.48
2022-08-25T07:34:16.394Z,16.90
2022-08-25T07:36:43.433Z,15.55
2022-08-25T07:39:10.286Z,17.88
2022-08-25T07:41:38.720Z,17.92
2022-08-25T07:44:06.215Z,17.42
2022-08-25T07:46:33.346Z,17.55
2022-08-25T07:49:00.678Z,17.58
2022-08-25T07:54:13.756Z,16.90
2022-08-25T07:56:41.519Z,15.68
2022-08-25T07:59:08.261Z,16.10
2022-08-25T08:01:40.246Z,17.15
2022-08-25T08:04:07.579Z,17.80
2022-08-25T08:06:34.255Z,16.13
2022-08-25T08:09:02.695Z,18.90
2022-08-25T08:11:33.171Z,18.23
2022-08-25T08:14:00.169Z,17.85
2022-08-25T08:16:29.787Z,19.30
2022-08-25T08:18:57.736Z,18.77
2022-08-25T08:21:30.424Z,19.35
2022-08-25T08:23:59.055Z,17.90
2022-08-25T08:26:36.370Z,18.30
2022-08-25T08:29:09.128Z,19.20
2022-08-25T08:31:36.564Z,19.73
2022-08-25T08:34:03.785Z,16.60
2022-08-25T08:36:30.392Z,18.05
2022-08-25T08:38:56.977Z,17.80
2022-08-25T08:42:09.561Z,16.25
2022-08-25T08:44:46.731Z,17.83
2022-08-25T08:47:37.946Z,17.90
2022-08-25T08:50:28.056Z,17.08
2022-08-25T08:53:11.600Z,17.35
2022-08-25T08:55:38.106Z,17.45
2022-08-25T08:58:09.783Z,17.85
2022-08-25T09:00:41.020Z,17.00
2022-08-25T09:03:39.728Z,17.75
2022-08-25T09:06:12.909Z,17.90
2022-08-25T09:08:44.853Z,18.23
2022-08-25T09:11:18.802Z,16.95
2022-08-25T09:14:16.532Z,16.85
2022-08-25T09:16:57.070Z,16.23
2022-08-25T09:19:48.232Z,17.30
2022-08-25T09:22:34.955Z,15.63
2022-08-25T09:25:08.447Z,14.93
2022-08-25T09:27:41.879Z,15.57
2022-08-25T09:30:16.018Z,14.25
2022-08-25T09:32:49.036Z,13.20
2022-08-25T09:35:28.676Z,13.45
2022-08-25T09:38:03.569Z,13.52
2022-08-25T09:40:32.522Z,11.75
2022-08-25T09:43:01.842Z,10.43
2022-08-25T09:45:45.676Z,9.77
2022-08-25T09:48:28.515Z,10.60
2022-08-25T09:51:01.631Z,9.48
2022-08-25T09:53:29.869Z,10.43
2022-08-25T09:56:05.996Z,8.77
2022-08-25T09:58:32.588Z,9.45
2022-08-25T10:01:13.335Z,8.48
2022-08-25T10:04:05.836Z,9.48
2022-08-25T10:06:46.483Z,10.07
2022-08-25T10:09:27.378Z,10.52
2022-08-25T10:11:57.648Z,9.05
2022-08-25T10:14:44.403Z,8.77
2022-08-25T10:17:15.615Z,8.27
2022-08-25T10:19:42.906Z,9.02
2022-08-25T10:22:32.388Z,9.15
2022-08-25T10:25:00.058Z,8.27
2022-08-25T10:27:50.943Z,7.68
2022-08-25T10:30:20.836Z,7.85
2022-08-25T10:33:20.093Z,7.95
2022-08-25T10:35:58.938Z,8.40
2022-08-25T10:38:43.002Z,8.50
2022-08-25T10:41:33.359Z,8.20
2022-08-25T10:44:40.418Z,8.20
2022-08-25T10:47:40.584Z,7.35
2022-08-25T10:50:32.803Z,8.70
2022-08-25T10:53:29.959Z,8.20
2022-08-25T10:56:07.185Z,6.43
2022-08-25T10:58:44.331Z,7.65
2022-08-25T11:01:32.975Z,7.80
2022-08-25T11:04:08.401Z,7.70
2022-08-25T11:06:41.074Z,7.30
2022-08-25T11:09:11.259Z,7.80
2022-08-25T11:11:48.540Z,7.45
2022-08-25T11:14:20.099Z,7.53
2022-08-25T11:17:06.681Z,6.47
2022-08-25T11:19:39.015Z,6.97
2022-08-25T11:22:23.030Z,7.47
2022-08-25T11:25:00.654Z,6.43
2022-08-25T11:27:51.736Z,6.95
2022-08-25T11:30:19.128Z,8.02
2022-08-25T11:32:51.108Z,6.55
2022-08-25T11:35:21.141Z,7.25
2022-08-25T11:38:19.157Z,6.53
2022-08-25T11:40:55.709Z,6.10
2022-08-25T11:43:25.624Z,7.68
2022-08-25T11:46:04.520Z,6.78
2022-08-25T11:48:39.631Z,6.63
2022-08-25T11:51:09.434Z,6.30
2022-08-25T11:53:45.261Z,6.75
2022-08-25T11:56:31.848Z,6.32
2022-08-25T11:58:59.428Z,5.70
2022-08-25T12:01:32.702Z,6.38
2022-08-25T12:04:45.232Z,6.35
2022-08-25T12:07:15.969Z,6.53
2022-08-25T12:09:53.779Z,6.07
2022-08-25T12:12:44.117Z,5.88
2022-08-25T12:15:20.431Z,6.22
2022-08-25T12:18:22.894Z,6.20
2022-08-25T12:20:55.386Z,6.30
2022-08-25T12:23:45.088Z,6.50
2022-08-25T12:26:46.213Z,6.13
2022-08-25T12:29:21.492Z,5.28
2022-08-25T12:31:59.187Z,5.78
2022-08-25T12:34:53.560Z,5.60
2022-08-25T12:37:22.343Z,5.70
2022-08-25T12:39:49.332Z,6.00
2022-08-25T12:42:43.934Z,5.95
2022-08-25T12:45:19.642Z,5.15
2022-08-25T12:47:48.759Z,5.50
2022-08-25T12:50:34.955Z,6.10
2022-08-25T12:53:40.613Z,6.22
2022-08-25T12:56:27.754Z,5.05
2022-08-25T12:59:03.211Z,5.35
2022-08-25T13:01:50.912Z,4.97
2022-08-25T13:04:55.341Z,5.95
2022-08-25T13:08:18.174Z,5.47
2022-08-25T13:10:52.065Z,5.68
2022-08-25T13:13:45.189Z,5.97
2022-08-25T13:16:29.121Z,5.13
2022-08-25T13:18:59.417Z,5.43
2022-08-25T13:21:39.076Z,5.95
2022-08-25T13:24:09.700Z,5.10
2022-08-25T13:26:48.065Z,5.25
2022-08-25T13:29:20.592Z,5.95
2022-08-25T13:31:56.686Z,5.35
2022-08-25T13:34:34.851Z,6.18
2022-08-25T13:37:26.416Z,5.55
2022-08-25T13:40:07.500Z,5.13
2022-08-25T13:42:39.324Z,5.20
2022-08-25T13:45:15.037Z,5.68
2022-08-25T13:47:45.141Z,5.00
2022-08-25T13:50:27.229Z,5.13
2022-08-25T13:52:57.206Z,5.43
2022-08-25T13:55:51.633Z,4.80
2022-08-25T13:58:38.668Z,4.90
2022-08-25T14:01:47.331Z,5.43
2022-08-25T14:04:26.071Z,5.32
2022-08-25T14:07:06.325Z,5.68
2022-08-25T14:10:00.830Z,5.65
2022-08-25T14:15:16.905Z,5.03
2022-08-25T14:17:49.208Z,5.35
2022-08-25T14:20:19.414Z,4.90
2022-08-25T14:22:46.254Z,5.55
2022-08-25T14:25:12.887Z,4.47
2022-08-25T14:28:03.690Z,5.00
2022-08-25T14:30:34.046Z,5.72
2022-08-25T14:33:02.462Z,5.28
2022-08-25T14:35:29.648Z,5.85
2022-08-25T14:37:58.200Z,4.53
2022-08-25T14:40:24.947Z,5.07
2022-08-25T14:42:51.569Z,4.50
2022-08-25T14:45:18.984Z,4.95
2022-08-25T14:47:50.023Z,5.72
2022-08-25T14:50:20.153Z,5.35
2022-08-25T14:52:52.018Z,5.10
2022-08-25T14:55:31.813Z,4.63
2022-08-25T14:57:59.457Z,4.72
2022-08-25T15:00:26.747Z,4.45
2022-08-25T15:02:54.969Z,4.53
2022-08-25T15:05:25.764Z,5.05
2022-08-25T15:08:12.332Z,4.30
2022-08-25T15:10:40.331Z,5.38
2022-08-25T15:13:07.253Z,4.95
2022-08-25T15:15:38.553Z,4.90
2022-08-25T15:18:05.705Z,4.95
2022-08-25T15:20:32.833Z,4.47
2022-08-25T15:22:59.854Z,4.85
2022-08-25T15:25:26.751Z,4.55
2022-08-25T15:27:54.261Z,4.78
2022-08-25T15:30:21.515Z,4.75
2022-08-25T15:32:57.649Z,4.18
2022-08-25T15:35:28.975Z,5.40
2022-08-25T15:37:55.868Z,5.55
2022-08-25T15:40:22.602Z,4.95
2022-08-25T15:42:49.194Z,5.15
2022-08-25T15:45:16.527Z,5.07
2022-08-25T15:47:44.673Z,4.80
2022-08-25T15:50:14.997Z,4.50
2022-08-25T15:52:46.307Z,5.00
2022-08-25T15:55:13.906Z,5.40
2022-08-25T15:57:41.055Z,5.15
2022-08-25T16:00:11.452Z,5.05
2022-08-25T16:02:40.160Z,4.50
2022-08-25T16:05:08.388Z,4.25
2022-08-25T16:07:35.297Z,4.53
2022-08-25T16:10:04.375Z,5.10
2022-08-25T16:12:31.737Z,4.72
2022-08-25T16:14:58.375Z,4.55
2022-08-25T16:17:25.257Z,4.20
2022-08-25T16:19:51.760Z,4.65
2022-08-25T16:22:18.269Z,4.18
2022-08-25T16:24:45.337Z,3.85
2022-08-25T16:27:13.199Z,4.85
2022-08-25T16:29:44.049Z,4.10
2022-08-25T16:32:13.444Z,4.38
2022-08-25T16:34:41.018Z,4.65
2022-08-25T16:37:08.663Z,5.03
2022-08-25T16:39:36.149Z,4.72
2022-08-25T16:42:06.684Z,4.60
2022-08-25T16:44:34.417Z,3.83
2022-08-25T16:47:01.569Z,4.82
2022-08-25T16:49:28.147Z,4.40
2022-08-25T16:51:57.603Z,4.30
2022-08-25T16:54:44.396Z,4.70
2022-08-25T16:57:11.588Z,4.75
2022-08-25T16:59:38.152Z,4.75
2022-08-25T17:02:06.760Z,5.22
2022-08-25T17:04:33.457Z,5.53
2022-08-25T17:07:00.039Z,6.50
2022-08-25T17:09:28.504Z,5.80
2022-08-25T17:11:57.331Z,5.72
2022-08-25T17:14:24.341Z,5.22
2022-08-25T17:16:54.811Z,5.18
2022-08-25T17:19:23.605Z,4.82
2022-08-25T17:21:50.644Z,6.18
2022-08-25T17:24:17.461Z,5.63
2022-08-25T17:26:46.244Z,5.30
2022-08-25T17:29:12.923Z,5.60
2022-08-25T17:31:40.404Z,6.10
2022-08-25T17:34:10.626Z,5.32
2022-08-25T17:36:37.928Z,6.18
2022-08-25T17:39:08.085Z,6.88
2022-08-25T17:41:34.702Z,7.28
2022-08-25T17:44:04.845Z,7.72
2022-08-25T17:46:31.562Z,6.78
2022-08-25T17:48:58.173Z,5.70
2022-08-25T17:51:25.220Z,6.80
2022-08-25T17:53:53.056Z,7.07
2022-08-25T17:56:21.901Z,6.13
2022-08-25T17:58:49.472Z,5.25
2022-08-25T18:01:28.475Z,5.07
2022-08-25T18:03:56.043Z,5.70
2022-08-25T18:06:23.346Z,5.90
2022-08-25T18:08:52.188Z,5.68
2022-08-25T18:11:21.094Z,6.38
2022-08-25T18:13:47.667Z,7.40
2022-08-25T18:16:17.329Z,7.28
2022-08-25T18:18:44.480Z,5.72
2022-08-25T18:21:16.545Z,8.75
2022-08-25T18:23:43.635Z,6.90
2022-08-25T18:26:13.036Z,6.57
2022-08-25T18:28:40.392Z,7.70
2022-08-25T18:31:12.174Z,7.90
2022-08-25T18:33:42.171Z,7.47
2022-08-25T18:36:09.792Z,6.72
2022-08-25T18:38:57.850Z,5.45
2022-08-25T18:41:33.984Z,5.82
2022-08-25T18:44:02.642Z,5.15
2022-08-25T18:46:29.275Z,5.75
2022-08-25T18:48:56.068Z,5.95
2022-08-25T18:51:23.504Z,5.63
2022-08-25T18:53:51.386Z,5.85
2022-08-25T18:56:22.490Z,6.43
2022-08-25T18:58:49.225Z,5.40
2022-08-25T19:01:17.467Z,6.10
2022-08-25T19:03:45.104Z,5.70
2022-08-25T19:06:11.842Z,5.43
2022-08-25T19:08:41.676Z,5.43
2022-08-25T19:11:09.972Z,5.05
2022-08-25T19:13:37.838Z,5.55
2022-08-25T19:16:21.426Z,5.55
2022-08-25T19:18:50.082Z,5.97
2022-08-25T19:21:22.799Z,5.85
2022-08-25T19:23:50.631Z,6.47
2022-08-25T19:26:17.962Z,5.38
2022-08-25T19:28:48.830Z,6.50
2022-08-25T19:31:18.326Z,6.57
2022-08-25T19:33:46.015Z,7.10
2022-08-25T19:36:13.857Z,5.97
2022-08-25T19:38:40.769Z,6.32
2022-08-25T19:41:12.994Z,6.43
2022-08-25T19:43:55.631Z,6.07
2022-08-25T19:46:35.715Z,7.35
2022-08-25T19:49:09.139Z,7.30
2022-08-25T19:51:41.022Z,7.53
2022-08-25T19:54:15.238Z,6.68
2022-08-25T19:56:43.931Z,6.00
2022-08-25T19:59:36.607Z,7.60
2022-08-25T20:02:12.141Z,6.35
2022-08-25T20:04:42.541Z,6.97
2022-08-25T20:07:16.892Z,8.00
2022-08-25T20:09:43.503Z,6.97
2022-08-25T20:12:11.962Z,6.35
2022-08-25T20:14:41.245Z,7.18
2022-08-25T20:17:23.927Z,6.88
2022-08-25T20:19:57.100Z,6.95
2022-08-25T20:22:26.653Z,8.25
2022-08-25T20:24:57.347Z,7.72
2022-08-25T20:27:29.456Z,8.43
2022-08-25T20:29:56.309Z,8.43
2022-08-25T20:32:23.279Z,8.32
2022-08-25T20:34:50.077Z,8.70
2022-08-25T20:37:16.813Z,8.80
2022-08-25T20:39:46.090Z,7.60
2022-08-25T20:42:13.796Z,7.78
2022-08-25T20:44:42.280Z,7.35
2022-08-25T20:47:10.505Z,7.22
2022-08-25T20:49:39.175Z,7.32
2022-08-25T20:52:07.088Z,7.32
2022-08-25T20:54:33.664Z,6.40
2022-08-25T20:57:00.300Z,7.40
2022-08-25T20:59:29.410Z,7.97
2022-08-25T21:01:56.807Z,8.18
2022-08-25T21:04:26.140Z,7.60
2022-08-25T21:06:53.186Z,7.55
2022-08-25T21:09:22.841Z,7.97
2022-08-25T21:11:51.469Z,8.48
2022-08-25T21:14:18.320Z,8.95
2022-08-25T21:16:47.046Z,6.85
2022-08-25T21:19:26.710Z,7.53
2022-08-25T21:21:59.494Z,8.02
2022-08-25T21:24:27.128Z,8.05
2022-08-25T21:26:58.036Z,6.97
2022-08-25T21:29:26.076Z,8.35
2022-08-25T21:31:55.474Z,7.63
2022-08-25T21:34:25.188Z,6.85
2022-08-25T21:36:58.245Z,8.90
2022-08-25T21:39:27.645Z,7.18
2022-08-25T21:41:55.261Z,9.10
2022-08-25T21:44:22.490Z,8.38
2022-08-25T21:46:54.254Z,8.23
2022-08-25T21:49:24.821Z,8.00
2022-08-25T21:52:00.073Z,7.68
2022-08-25T21:54:28.718Z,7.57
2022-08-25T21:57:01.335Z,7.45
2022-08-25T21:59:33.989Z,7.88
2022-08-25T22:02:07.817Z,9.02
2022-08-25T22:04:36.520Z,8.45
2022-08-25T22:07:03.105Z,7.35
2022-08-25T22:09:30.667Z,7.88
2022-08-25T22:11:58.696Z,7.85
2022-08-25T22:14:26.534Z,7.95
2022-08-25T22:16:54.285Z,7.85
2022-08-25T22:19:21.604Z,7.82
2022-08-25T22:21:50.818Z,8.30
2022-08-25T22:24:18.256Z,8.27
2022-08-25T22:26:47.746Z,8.02
2022-08-25T22:29:24.774Z,7.05
2022-08-25T22:31:53.172Z,7.82
2022-08-25T22:34:19.832Z,7.90
2022-08-25T22:36:59.764Z,7.00
2022-08-25T22:39:26.939Z,7.43
2022-08-25T22:41:53.423Z,7.57
2022-08-25T22:44:19.992Z,8.10
2022-08-25T22:46:46.502Z,8.45
2022-08-25T22:49:13.034Z,7.00
2022-08-25T22:51:39.820Z,7.43
2022-08-25T22:54:06.477Z,7.65
2022-08-25T22:56:37.460Z,8.07
2022-08-25T22:59:07.472Z,7.75
2022-08-25T23:01:34.460Z,6.60
2022-08-25T23:04:02.931Z,7.70
2022-08-25T23:06:30.252Z,6.93
2022-08-25T23:08:56.931Z,7.53
2022-08-25T23:11:24.553Z,7.50
2022-08-25T23:13:55.217Z,6.43
2022-08-25T23:16:22.629Z,7.32
2022-08-25T23:18:49.948Z,6.93
2022-08-25T23:21:38.000Z,7.25
2022-08-25T23:24:08.928Z,7.78
2022-08-25T23:26:42.400Z,7.18
2022-08-25T23:29:18.048Z,6.72
2022-08-25T23:31:46.612Z,7.22
2022-08-25T23:34:13.354Z,7.40
2022-08-25T23:36:40.581Z,7.63
2022-08-25T23:39:07.834Z,7.30
2022-08-25T23:41:35.884Z,7.38
2022-08-25T23:44:05.424Z,7.53
2022-08-25T23:46:35.075Z,7.68
2022-08-25T23:49:03.025Z,7.30
2022-08-25T23:51:33.671Z,6.90
2022-08-25T23:54:05.996Z,7.78
2022-08-25T23:56:36.225Z,9.27
2022-08-25T23:59:04.193Z,7.72
